Time;durP1;ratioP1;P1;durP2;ratioP2;P2;SDS_P1;SDS_P2;PMS_P1;PMS_P2;Temp;Humidity;BMP_temperature;BMP_pressure;BME280_temperature;BME280_humidity;BME280_pressure;Samples;Min_cycle;Max_cycle;Signal;HPM_P1;HPM_P2
2022/03/30 00:01:31;;;;;;;0.70;0.70;;;;;;;;;;1820092;77;25634;-46
2022/03/30 00:03:59;;;;;;;0.60;0.60;;;;;;;;;;1820182;77;26364;-64
2022/03/30 00:06:26;;;;;;;1.07;0.60;;;;;;;;;;1819760;79;26352;-52
2022/03/30 00:08:54;;;;;;;0.60;0.60;;;;;;;;;;1821860;77;26263;-51
2022/03/30 00:11:22;;;;;;;0.60;0.60;;;;;;;;;;1813915;77;27512;-48
2022/03/30 00:13:49;;;;;;;0.70;0.70;;;;;;;;;;1822171;78;26773;-61
2022/03/30 00:16:17;;;;;;;0.50;0.50;;;;;;;;;;1822760;77;26274;-58
2022/03/30 00:18:44;;;;;;;0.60;0.60;;;;;;;;;;1825204;78;26324;-56
2022/03/30 00:21:11;;;;;;;0.50;0.50;;;;;;;;;;1825705;78;26215;-52
2022/03/30 00:23:39;;;;;;;0.60;0.60;;;;;;;;;;1827885;77;26270;-52
2022/03/30 00:26:07;;;;;;;0.53;0.53;;;;;;;;;;1825335;78;26266;-55
2022/03/30 00:28:34;;;;;;;0.60;0.60;;;;;;;;;;1823217;77;26278;-52
2022/03/30 00:31:01;;;;;;;0.60;0.60;;;;;;;;;;1817915;78;26294;-54
2022/03/30 00:33:29;;;;;;;0.80;0.80;;;;;;;;;;1823227;76;26261;-48
2022/03/30 00:35:56;;;;;;;0.80;0.80;;;;;;;;;;1824359;78;26360;-54
2022/03/30 00:38:23;;;;;;;0.60;0.60;;;;;;;;;;1827117;77;26313;-49
2022/03/30 00:40:51;;;;;;;0.40;0.40;;;;;;;;;;1826610;77;26259;-48
2022/03/30 00:43:18;;;;;;;0.55;0.55;;;;;;;;;;1826851;78;27310;-54
2022/03/30 00:45:46;;;;;;;0.60;0.60;;;;;;;;;;1824650;78;26234;-49
2022/03/30 00:48:14;;;;;;;0.80;0.68;;;;;;;;;;1825095;78;26671;-58
2022/03/30 00:50:41;;;;;;;0.78;0.50;;;;;;;;;;1820962;78;26262;-55
2022/03/30 00:53:08;;;;;;;0.70;0.70;;;;;;;;;;1825084;78;26262;-52
2022/03/30 00:55:36;;;;;;;0.70;0.70;;;;;;;;;;1826036;77;26371;-56
2022/03/30 00:58:04;;;;;;;0.50;0.50;;;;;;;;;;1825041;78;26898;-52
2022/03/30 01:00:31;;;;;;;0.70;0.65;;;;;;;;;;1824930;78;26254;-55
2022/03/30 01:02:58;;;;;;;0.60;0.60;;;;;;;;;;1824690;78;26336;-49
2022/03/30 01:05:25;;;;;;;0.50;0.50;;;;;;;;;;1822540;77;26879;-52
2022/03/30 01:07:55;;;;;;;0.80;0.53;;;;;;;;;;1823375;77;26270;-53
2022/03/30 01:10:23;;;;;;;0.60;0.60;;;;;;;;;;1833506;77;26823;-54
2022/03/30 01:12:52;;;;;;;0.50;0.50;;;;;;;;;;1827584;77;26270;-56
2022/03/30 01:15:20;;;;;;;0.60;0.60;;;;;;;;;;1824925;78;26773;-56
2022/03/30 01:17:47;;;;;;;0.60;0.60;;;;;;;;;;1825148;77;26317;-57
2022/03/30 01:20:17;;;;;;;0.53;0.53;;;;;;;;;;1824682;77;26285;-59
2022/03/30 01:22:44;;;;;;;0.60;0.60;;;;;;;;;;1824762;77;26297;-55
2022/03/30 01:25:11;;;;;;;0.60;0.60;;;;;;;;;;1827832;77;26765;-55
2022/03/30 01:27:39;;;;;;;0.45;0.45;;;;;;;;;;1826523;77;26337;-52
2022/03/30 01:33:02;;;;;;;0.60;0.60;;;;;;;;;;1814229;77;26893;-52
2022/03/30 01:35:30;;;;;;;0.30;0.30;;;;;;;;;;1827452;77;26368;-59
2022/03/30 01:37:57;;;;;;;2.17;0.60;;;;;;;;;;1825969;77;26276;-57
2022/03/30 01:40:24;;;;;;;0.40;0.40;;;;;;;;;;1825972;77;26340;-46
2022/03/30 01:42:52;;;;;;;0.40;0.40;;;;;;;;;;1824845;78;26263;-48
2022/03/30 01:45:19;;;;;;;0.53;0.53;;;;;;;;;;1820738;77;26738;-49
2022/03/30 01:47:50;;;;;;;0.40;0.40;;;;;;;;;;1834148;77;26740;-50
2022/03/30 01:50:18;;;;;;;0.40;0.40;;;;;;;;;;1825637;78;26329;-52
2022/03/30 01:52:45;;;;;;;0.50;0.50;;;;;;;;;;1825721;77;26310;-53
2022/03/30 01:55:13;;;;;;;0.40;0.40;;;;;;;;;;1811292;77;26360;-52
2022/03/30 01:57:41;;;;;;;0.40;0.40;;;;;;;;;;1823962;78;26336;-56
2022/03/30 02:00:10;;;;;;;0.40;0.40;;;;;;;;;;1825645;78;26345;-50
2022/03/30 02:02:38;;;;;;;0.40;0.40;;;;;;;;;;1827251;77;26290;-64
2022/03/30 02:05:08;;;;;;;0.35;0.35;;;;;;;;;;1825436;78;26734;-52
2022/03/30 02:07:37;;;;;;;0.40;0.40;;;;;;;;;;1824945;78;26290;-52
2022/03/30 02:10:05;;;;;;;0.40;0.40;;;;;;;;;;1823990;77;26408;-56
2022/03/30 02:12:32;;;;;;;0.40;0.40;;;;;;;;;;1824880;77;26274;-51
2022/03/30 02:15:00;;;;;;;0.40;0.40;;;;;;;;;;1820783;77;26295;-49
2022/03/30 02:17:29;;;;;;;0.50;0.50;;;;;;;;;;1800796;78;26340;-58
2022/03/30 02:19:57;;;;;;;0.50;0.50;;;;;;;;;;1803959;78;26274;-52
2022/03/30 02:22:24;;;;;;;0.50;0.50;;;;;;;;;;1803552;79;26278;-50
2022/03/30 02:24:52;;;;;;;0.50;0.50;;;;;;;;;;1803084;79;26263;-46
2022/03/30 02:27:20;;;;;;;0.55;0.50;;;;;;;;;;1802872;78;26774;-52
2022/03/30 02:29:48;;;;;;;0.40;0.40;;;;;;;;;;1803611;79;26218;-57
2022/03/30 02:32:15;;;;;;;0.40;0.40;;;;;;;;;;1803527;79;26784;-57
2022/03/30 02:34:43;;;;;;;0.40;0.40;;;;;;;;;;1811316;78;26195;-53
2022/03/30 02:37:11;;;;;;;0.40;0.40;;;;;;;;;;1803415;78;26414;-53
2022/03/30 02:39:39;;;;;;;0.40;0.40;;;;;;;;;;1805056;79;26269;-54
2022/03/30 02:42:07;;;;;;;1.20;0.40;;;;;;;;;;1803652;78;25732;-55
2022/03/30 02:44:34;;;;;;;0.53;0.53;;;;;;;;;;1800472;78;26312;-52
2022/03/30 02:47:02;;;;;;;0.30;0.30;;;;;;;;;;1803784;79;26214;-49
2022/03/30 02:49:29;;;;;;;0.40;0.40;;;;;;;;;;1803589;79;26266;-55
2022/03/30 02:51:57;;;;;;;0.40;0.40;;;;;;;;;;1803649;78;26364;-45
2022/03/30 02:54:24;;;;;;;0.40;0.40;;;;;;;;;;1802880;78;26658;-49
2022/03/30 02:56:52;;;;;;;0.13;0.13;;;;;;;;;;1790493;79;26851;-49
2022/03/30 02:59:19;;;;;;;0.53;0.20;;;;;;;;;;1796496;78;26267;-58
2022/03/30 03:01:47;;;;;;;0.40;0.40;;;;;;;;;;1803810;78;26332;-54
2022/03/30 03:04:14;;;;;;;0.90;0.40;;;;;;;;;;1803557;79;26258;-59
2022/03/30 03:06:42;;;;;;;0.30;0.30;;;;;;;;;;1786852;78;26284;-51
2022/03/30 03:09:09;;;;;;;1.12;0.40;;;;;;;;;;1803420;78;26400;-53
2022/03/30 03:11:36;;;;;;;0.55;0.45;;;;;;;;;;1804819;79;26829;-52
2022/03/30 03:14:07;;;;;;;0.45;0.45;;;;;;;;;;1804229;78;26769;-59
2022/03/30 03:16:34;;;;;;;0.47;0.47;;;;;;;;;;1803306;78;26313;-49
2022/03/30 03:19:02;;;;;;;0.40;0.40;;;;;;;;;;1801761;78;26697;-63
2022/03/30 03:21:30;;;;;;;0.50;0.50;;;;;;;;;;1803555;79;26709;-51
2022/03/30 03:23:57;;;;;;;0.30;0.30;;;;;;;;;;1803668;79;26278;-49
2022/03/30 03:26:24;;;;;;;0.40;0.40;;;;;;;;;;1803462;79;26282;-61
2022/03/30 03:28:52;;;;;;;0.20;0.20;;;;;;;;;;1806990;78;26594;-49
2022/03/30 03:31:19;;;;;;;0.30;0.30;;;;;;;;;;1803491;79;26533;-49
2022/03/30 03:33:46;;;;;;;0.30;0.30;;;;;;;;;;1803267;79;26348;-47
2022/03/30 03:36:13;;;;;;;0.23;0.23;;;;;;;;;;1791056;78;26266;-59
2022/03/30 03:38:41;;;;;;;0.33;0.33;;;;;;;;;;1794352;78;26238;-49
2022/03/30 03:41:08;;;;;;;0.98;0.30;;;;;;;;;;1806694;79;26580;-53
2022/03/30 03:43:36;;;;;;;0.40;0.40;;;;;;;;;;1803448;79;26259;-49
2022/03/30 03:46:04;;;;;;;0.30;0.30;;;;;;;;;;1810073;78;26889;-60
2022/03/30 03:48:31;;;;;;;0.28;0.28;;;;;;;;;;1797388;78;26288;-54
2022/03/30 03:50:59;;;;;;;0.93;0.37;;;;;;;;;;1803772;78;26267;-68
2022/03/30 03:53:27;;;;;;;0.40;0.40;;;;;;;;;;1797337;78;26298;-52
2022/03/30 03:55:54;;;;;;;0.40;0.40;;;;;;;;;;1794265;79;26274;-51
2022/03/30 03:58:21;;;;;;;0.40;0.40;;;;;;;;;;1792196;78;26328;-46
2022/03/30 04:00:49;;;;;;;0.30;0.30;;;;;;;;;;1812201;78;26231;-49
2022/03/30 04:03:16;;;;;;;0.30;0.30;;;;;;;;;;1798252;78;26293;-58
2022/03/30 04:05:44;;;;;;;0.30;0.30;;;;;;;;;;1803674;78;26804;-57
2022/03/30 04:08:11;;;;;;;0.30;0.30;;;;;;;;;;1803387;79;26258;-51
2022/03/30 04:10:38;;;;;;;0.42;0.42;;;;;;;;;;1803823;78;26311;-49
2022/03/30 04:13:06;;;;;;;0.30;0.30;;;;;;;;;;1802852;78;26356;-54
2022/03/30 04:15:34;;;;;;;0.20;0.20;;;;;;;;;;1802727;79;26739;-51
2022/03/30 04:18:03;;;;;;;0.40;0.40;;;;;;;;;;1816744;79;26743;-63
2022/03/30 04:20:31;;;;;;;0.70;0.30;;;;;;;;;;1819717;78;26298;-55
2022/03/30 04:22:58;;;;;;;0.30;0.30;;;;;;;;;;1821200;77;26287;-45
2022/03/30 04:25:26;;;;;;;0.35;0.35;;;;;;;;;;1810772;78;26295;-52
2022/03/30 04:27:54;;;;;;;3.40;0.60;;;;;;;;;;1820105;79;26808;-67
2022/03/30 04:30:22;;;;;;;0.40;0.40;;;;;;;;;;1820187;77;26368;-49
2022/03/30 04:32:49;;;;;;;0.30;0.30;;;;;;;;;;1819324;78;26810;-51
2022/03/30 04:35:22;;;;;;;0.30;0.30;;;;;;;;;;1819902;77;26259;-58
2022/03/30 04:37:47;;;;;;;0.35;0.35;;;;;;;;;;1819666;78;26231;-55
2022/03/30 04:40:14;;;;;;;0.40;0.40;;;;;;;;;;1820803;78;26720;-61
2022/03/30 04:42:41;;;;;;;0.40;0.35;;;;;;;;;;1820959;78;26734;-49
2022/03/30 04:45:09;;;;;;;0.23;0.23;;;;;;;;;;1820800;78;27256;-47
2022/03/30 04:47:36;;;;;;;0.75;0.40;;;;;;;;;;1813971;77;26384;-61
2022/03/30 04:50:04;;;;;;;1.07;0.50;;;;;;;;;;1814470;78;26863;-59
2022/03/30 04:52:36;;;;;;;0.30;0.30;;;;;;;;;;1818119;77;26263;-58
2022/03/30 04:55:00;;;;;;;1.65;0.40;;;;;;;;;;1819578;78;26345;-55
2022/03/30 04:57:28;;;;;;;4.12;0.40;;;;;;;;;;1812238;77;27003;-55
2022/03/30 04:59:55;;;;;;;0.37;0.37;;;;;;;;;;1815679;79;26745;-48
2022/03/30 05:02:22;;;;;;;0.40;0.40;;;;;;;;;;1817743;78;27417;-47
2022/03/30 05:04:50;;;;;;;1.02;0.50;;;;;;;;;;1814043;78;26062;-64
2022/03/30 05:07:17;;;;;;;1.17;0.40;;;;;;;;;;1817718;78;26923;-58
2022/03/30 05:09:45;;;;;;;0.65;0.40;;;;;;;;;;1814790;77;26243;-51
2022/03/30 05:12:12;;;;;;;1.65;0.40;;;;;;;;;;1814378;79;26266;-61
2022/03/30 05:14:39;;;;;;;1.20;0.60;;;;;;;;;;1808047;77;26322;-55
2022/03/30 05:17:08;;;;;;;0.57;0.40;;;;;;;;;;1815394;78;26365;-56
2022/03/30 05:19:37;;;;;;;0.72;0.47;;;;;;;;;;1814024;77;26278;-45
2022/03/30 05:22:05;;;;;;;0.40;0.40;;;;;;;;;;1815080;79;26734;-49
2022/03/30 05:24:32;;;;;;;1.72;0.47;;;;;;;;;;1815961;77;26373;-62
2022/03/30 05:27:00;;;;;;;0.72;0.50;;;;;;;;;;1809950;79;25980;-64
2022/03/30 05:29:27;;;;;;;0.60;0.35;;;;;;;;;;1817258;79;26275;-57
2022/03/30 05:31:55;;;;;;;0.88;0.40;;;;;;;;;;1816780;77;26327;-52
2022/03/30 05:34:24;;;;;;;0.50;0.50;;;;;;;;;;1818108;78;26857;-55
2022/03/30 05:36:51;;;;;;;0.42;0.30;;;;;;;;;;1819365;77;26883;-45
2022/03/30 05:39:19;;;;;;;0.72;0.35;;;;;;;;;;1815528;77;26329;-67
2022/03/30 05:41:46;;;;;;;1.75;0.40;;;;;;;;;;1815582;77;26271;-52
2022/03/30 05:44:13;;;;;;;0.68;0.30;;;;;;;;;;1816979;77;26397;-61
2022/03/30 05:46:40;;;;;;;0.50;0.50;;;;;;;;;;1817305;78;26208;-57
2022/03/30 05:49:08;;;;;;;0.85;0.45;;;;;;;;;;1819241;79;26230;-55
2022/03/30 05:51:35;;;;;;;0.35;0.30;;;;;;;;;;1819060;78;26767;-57
2022/03/30 05:54:03;;;;;;;0.40;0.40;;;;;;;;;;1817654;77;26364;-46
2022/03/30 05:59:15;;;;;;;0.30;0.30;;;;;;;;;;1825650;78;26279;-54
2022/03/30 06:01:42;;;;;;;1.55;0.33;;;;;;;;;;1819368;79;26286;-55
2022/03/30 06:04:10;;;;;;;0.40;0.40;;;;;;;;;;1820755;78;26251;-56
2022/03/30 06:06:37;;;;;;;0.68;0.47;;;;;;;;;;1812846;77;26691;-51
2022/03/30 06:09:07;;;;;;;1.15;0.20;;;;;;;;;;1820038;77;26765;-54
2022/03/30 06:11:34;;;;;;;4.30;0.50;;;;;;;;;;1815183;77;26805;-54
2022/03/30 06:14:02;;;;;;;3.98;0.57;;;;;;;;;;1818647;78;26305;-50
2022/03/30 06:16:29;;;;;;;3.30;0.55;;;;;;;;;;1815302;77;26726;-54
2022/03/30 06:18:57;;;;;;;1.17;0.40;;;;;;;;;;1816213;78;26294;-54
2022/03/30 06:21:24;;;;;;;1.35;0.40;;;;;;;;;;1820502;78;26294;-54
2022/03/30 06:23:52;;;;;;;0.78;0.60;;;;;;;;;;1817178;78;26263;-55
2022/03/30 06:26:19;;;;;;;0.45;0.30;;;;;;;;;;1820836;78;26297;-60
2022/03/30 06:28:47;;;;;;;1.45;0.40;;;;;;;;;;1811706;78;26302;-56
2022/03/30 06:31:17;;;;;;;1.98;0.40;;;;;;;;;;1820445;78;27332;-58
2022/03/30 06:33:47;;;;;;;1.67;0.42;;;;;;;;;;1820348;78;26376;-54
2022/03/30 06:36:15;;;;;;;2.55;0.50;;;;;;;;;;1819900;78;26262;-61
2022/03/30 06:38:42;;;;;;;0.37;0.30;;;;;;;;;;1823730;77;26670;-57
2022/03/30 06:41:12;;;;;;;0.23;0.23;;;;;;;;;;1828618;77;26330;-53
2022/03/30 06:43:46;;;;;;;0.20;0.20;;;;;;;;;;1821032;78;26294;-59
2022/03/30 06:46:09;;;;;;;1.47;0.40;;;;;;;;;;1821049;77;26223;-58
2022/03/30 06:48:37;;;;;;;0.53;0.30;;;;;;;;;;1821088;79;26299;-55
2022/03/30 06:51:04;;;;;;;0.37;0.37;;;;;;;;;;1819784;77;26292;-54
2022/03/30 06:53:32;;;;;;;0.37;0.28;;;;;;;;;;1808294;77;26298;-52
2022/03/30 06:55:59;;;;;;;1.60;0.30;;;;;;;;;;1794609;79;26282;-51
2022/03/30 06:58:27;;;;;;;2.00;0.33;;;;;;;;;;1790330;77;26308;-49
2022/03/30 07:00:56;;;;;;;0.35;0.35;;;;;;;;;;1790276;80;26372;-53
2022/03/30 07:03:26;;;;;;;1.07;0.40;;;;;;;;;;1790060;80;26327;-57
2022/03/30 07:05:52;;;;;;;0.30;0.30;;;;;;;;;;1790136;79;26313;-56
2022/03/30 07:11:04;;;;;;;0.68;0.20;;;;;;;;;;1817280;77;26315;-51
2022/03/30 07:13:32;;;;;;;0.30;0.30;;;;;;;;;;1814794;77;26274;-53
2022/03/30 07:15:59;;;;;;;0.30;0.30;;;;;;;;;;1821444;78;25641;-49
2022/03/30 07:18:27;;;;;;;0.20;0.20;;;;;;;;;;1820607;78;26287;-56
2022/03/30 07:20:55;;;;;;;0.30;0.30;;;;;;;;;;1821241;78;26332;-52
2022/03/30 07:23:23;;;;;;;1.17;0.30;;;;;;;;;;1821335;78;26757;-52
2022/03/30 07:25:51;;;;;;;0.33;0.33;;;;;;;;;;1821487;78;26310;-50
2022/03/30 07:28:18;;;;;;;0.10;0.10;;;;;;;;;;1820575;78;26348;-58
2022/03/30 07:30:48;;;;;;;0.20;0.20;;;;;;;;;;1797974;79;26231;-53
2022/03/30 07:33:15;;;;;;;0.40;0.30;;;;;;;;;;1821496;78;26718;-58
2022/03/30 07:35:46;;;;;;;0.20;0.20;;;;;;;;;;1821302;78;26211;-50
2022/03/30 07:38:12;;;;;;;0.55;0.23;;;;;;;;;;1821335;77;26266;-55
2022/03/30 07:40:40;;;;;;;0.30;0.30;;;;;;;;;;1822079;77;26275;-58
2022/03/30 07:43:07;;;;;;;0.37;0.30;;;;;;;;;;1817635;77;26271;-56
2022/03/30 07:45:35;;;;;;;0.20;0.20;;;;;;;;;;1734294;81;26374;-52
2022/03/30 07:48:02;;;;;;;0.37;0.20;;;;;;;;;;1751548;80;27038;-50
2022/03/30 07:50:29;;;;;;;0.20;0.20;;;;;;;;;;1773453;81;26305;-55
2022/03/30 07:52:57;;;;;;;0.20;0.20;;;;;;;;;;1773860;80;26364;-56
2022/03/30 07:55:25;;;;;;;0.20;0.20;;;;;;;;;;1774539;80;26312;-56
2022/03/30 07:57:52;;;;;;;0.20;0.20;;;;;;;;;;1774293;79;26388;-58
2022/03/30 08:00:21;;;;;;;0.37;0.30;;;;;;;;;;1774444;80;26352;-61
2022/03/30 08:02:49;;;;;;;0.20;0.20;;;;;;;;;;1774326;80;26245;-51
2022/03/30 08:05:16;;;;;;;0.37;0.28;;;;;;;;;;1772969;80;27452;-57
2022/03/30 08:07:44;;;;;;;0.20;0.20;;;;;;;;;;1774360;81;26290;-54
2022/03/30 08:10:12;;;;;;;0.20;0.20;;;;;;;;;;1783036;79;26800;-55
2022/03/30 08:12:42;;;;;;;0.47;0.28;;;;;;;;;;1774350;80;26336;-59
2022/03/30 08:15:11;;;;;;;0.20;0.20;;;;;;;;;;1774546;79;26746;-55
2022/03/30 08:17:39;;;;;;;1.07;0.30;;;;;;;;;;1774594;81;26339;-57
2022/03/30 08:20:07;;;;;;;0.30;0.30;;;;;;;;;;1771781;79;26348;-60
2022/03/30 08:22:34;;;;;;;0.17;0.17;;;;;;;;;;1800460;79;26376;-57
2022/03/30 08:25:06;;;;;;;0.30;0.30;;;;;;;;;;1793975;78;26229;-55
2022/03/30 08:27:33;;;;;;;0.30;0.30;;;;;;;;;;1802095;79;26337;-56
2022/03/30 08:30:00;;;;;;;0.20;0.20;;;;;;;;;;1803016;78;26654;-61
2022/03/30 08:32:27;;;;;;;0.20;0.20;;;;;;;;;;1802934;78;26269;-52
2022/03/30 08:34:56;;;;;;;0.28;0.28;;;;;;;;;;1802556;78;26312;-55
2022/03/30 08:37:24;;;;;;;0.30;0.30;;;;;;;;;;1804505;78;26767;-58
2022/03/30 08:39:53;;;;;;;0.30;0.30;;;;;;;;;;1804026;78;26363;-57
2022/03/30 08:42:20;;;;;;;0.30;0.30;;;;;;;;;;1801519;78;26351;-62
2022/03/30 08:44:53;;;;;;;0.60;0.20;;;;;;;;;;1801748;79;26375;-59
2022/03/30 08:47:18;;;;;;;0.23;0.23;;;;;;;;;;1802243;79;26297;-53
2022/03/30 08:49:47;;;;;;;0.40;0.20;;;;;;;;;;1805575;79;26613;-51
2022/03/30 08:52:15;;;;;;;1.85;0.30;;;;;;;;;;1812913;78;26249;-49
2022/03/30 08:54:43;;;;;;;0.23;0.23;;;;;;;;;;1803789;79;26300;-54
2022/03/30 08:57:11;;;;;;;0.30;0.30;;;;;;;;;;1803615;79;26288;-51
2022/03/30 08:59:39;;;;;;;0.30;0.30;;;;;;;;;;1797759;78;26307;-54
2022/03/30 09:02:08;;;;;;;0.20;0.20;;;;;;;;;;1803698;79;26749;-48
2022/03/30 09:04:35;;;;;;;0.57;0.30;;;;;;;;;;1804693;79;26277;-57
2022/03/30 09:07:03;;;;;;;0.30;0.30;;;;;;;;;;1803371;79;26793;-54
2022/03/30 09:09:31;;;;;;;0.20;0.20;;;;;;;;;;1806693;78;26383;-50
2022/03/30 09:12:00;;;;;;;0.60;0.60;;;;;;;;;;1804719;79;26273;-49
2022/03/30 09:14:29;;;;;;;0.33;0.33;;;;;;;;;;1796768;79;26293;-52
2022/03/30 09:16:58;;;;;;;0.13;0.13;;;;;;;;;;1805960;79;26307;-50
2022/03/30 09:19:26;;;;;;;0.20;0.20;;;;;;;;;;1808157;78;26395;-52
2022/03/30 09:21:56;;;;;;;0.30;0.28;;;;;;;;;;1792123;79;26347;-53
2022/03/30 09:24:25;;;;;;;0.25;0.20;;;;;;;;;;1768695;80;26361;-54
2022/03/30 09:26:54;;;;;;;0.20;0.20;;;;;;;;;;1796096;79;26730;-49
2022/03/30 09:29:22;;;;;;;0.10;0.10;;;;;;;;;;1793537;79;26760;-56
2022/03/30 09:31:50;;;;;;;0.20;0.20;;;;;;;;;;1771190;80;26731;-49
2022/03/30 09:34:19;;;;;;;0.85;0.20;;;;;;;;;;1794881;79;26376;-50
2022/03/30 09:36:48;;;;;;;0.20;0.20;;;;;;;;;;1771396;80;26354;-47
2022/03/30 09:39:29;;;;;;;0.20;0.20;;;;;;;;;;1773919;80;26273;-57
2022/03/30 09:41:58;;;;;;;0.20;0.20;;;;;;;;;;1814662;77;26751;-46
2022/03/30 09:44:28;;;;;;;0.20;0.20;;;;;;;;;;1802303;79;26288;-50
2022/03/30 09:46:57;;;;;;;0.33;0.25;;;;;;;;;;1801646;79;26405;-48
2022/03/30 09:49:41;;;;;;;0.40;0.30;;;;;;;;;;1801749;78;26350;-66
2022/03/30 09:52:13;;;;;;;0.20;0.20;;;;;;;;;;1803463;78;25829;-57
2022/03/30 09:54:49;;;;;;;0.20;0.20;;;;;;;;;;1801379;78;26347;-50
2022/03/30 09:57:21;;;;;;;0.15;0.15;;;;;;;;;;1800005;78;26866;-56
2022/03/30 09:59:58;;;;;;;0.20;0.20;;;;;;;;;;1804291;78;26363;-54
2022/03/30 10:02:27;;;;;;;3.12;0.30;;;;;;;;;;1801598;78;26304;-55
2022/03/30 10:04:55;;;;;;;0.30;0.30;;;;;;;;;;1792524;78;28421;-55
2022/03/30 10:07:23;;;;;;;0.20;0.20;;;;;;;;;;1798860;79;26241;-49
2022/03/30 10:09:51;;;;;;;0.33;0.10;;;;;;;;;;1799377;78;26792;-58
2022/03/30 10:12:19;;;;;;;0.23;0.23;;;;;;;;;;1800652;78;25955;-54
2022/03/30 10:14:48;;;;;;;0.15;0.15;;;;;;;;;;1800191;78;26400;-57
2022/03/30 10:17:16;;;;;;;0.25;0.25;;;;;;;;;;1800734;78;26305;-67
2022/03/30 10:19:44;;;;;;;0.20;0.20;;;;;;;;;;1795868;79;26314;-52
2022/03/30 10:22:19;;;;;;;0.33;0.28;;;;;;;;;;1785369;78;23667;-51
2022/03/30 10:24:56;;;;;;;0.10;0.10;;;;;;;;;;1786961;79;26317;-55
2022/03/30 10:27:39;;;;;;;0.10;0.10;;;;;;;;;;1786316;79;26789;-56
2022/03/30 10:30:08;;;;;;;0.30;0.30;;;;;;;;;;1786200;80;26290;-50
2022/03/30 10:32:37;;;;;;;0.10;0.10;;;;;;;;;;1787343;79;26591;-60
2022/03/30 10:35:08;;;;;;;0.25;0.25;;;;;;;;;;1792617;79;26303;-60
2022/03/30 10:37:42;;;;;;;0.20;0.20;;;;;;;;;;1787254;79;26317;-58
2022/03/30 10:40:17;;;;;;;0.13;0.13;;;;;;;;;;1784844;79;26762;-56
2022/03/30 10:42:54;;;;;;;0.10;0.10;;;;;;;;;;1783952;79;26281;-52
2022/03/30 10:45:26;;;;;;;1.30;0.30;;;;;;;;;;1786861;79;26627;-50
2022/03/30 10:48:07;;;;;;;0.10;0.10;;;;;;;;;;1787009;79;26848;-60
2022/03/30 10:50:35;;;;;;;0.20;0.20;;;;;;;;;;1786567;79;26278;-57
2022/03/30 10:53:03;;;;;;;0.28;0.28;;;;;;;;;;1782773;79;26329;-59
2022/03/30 10:55:33;;;;;;;0.47;0.30;;;;;;;;;;1786635;79;25662;-53
2022/03/30 10:58:04;;;;;;;2.22;0.30;;;;;;;;;;1787345;79;26679;-64
2022/03/30 11:00:36;;;;;;;0.53;0.20;;;;;;;;;;1787732;79;26343;-58
2022/03/30 11:03:07;;;;;;;0.20;0.20;;;;;;;;;;1789989;78;26292;-56
2022/03/30 11:05:35;;;;;;;0.30;0.30;;;;;;;;;;1787254;79;26285;-52
2022/03/30 11:08:05;;;;;;;2.47;0.20;;;;;;;;;;1789445;79;26298;-52
2022/03/30 11:10:47;;;;;;;0.10;0.10;;;;;;;;;;1782144;79;26341;-61
2022/03/30 11:13:15;;;;;;;2.67;0.20;;;;;;;;;;1787574;78;26907;-51
2022/03/30 11:15:59;;;;;;;0.25;0.25;;;;;;;;;;1788000;79;26337;-47
2022/03/30 11:18:31;;;;;;;0.20;0.20;;;;;;;;;;1789710;79;26278;-49
2022/03/30 11:21:11;;;;;;;0.30;0.30;;;;;;;;;;1785647;80;26777;-45
2022/03/30 11:23:39;;;;;;;0.30;0.30;;;;;;;;;;1794953;79;26352;-47
2022/03/30 11:26:06;;;;;;;7.83;0.40;;;;;;;;;;1790830;79;26348;-48
2022/03/30 11:28:35;;;;;;;0.30;0.30;;;;;;;;;;1776148;79;28296;-56
2022/03/30 11:31:05;;;;;;;2.30;0.25;;;;;;;;;;1786497;80;26297;-49
2022/03/30 11:33:34;;;;;;;0.20;0.20;;;;;;;;;;1783150;80;26873;-65
2022/03/30 11:36:03;;;;;;;0.35;0.30;;;;;;;;;;1786153;80;26294;-52
2022/03/30 11:38:37;;;;;;;0.30;0.30;;;;;;;;;;1806595;79;26233;-55
2022/03/30 11:41:08;;;;;;;0.57;0.40;;;;;;;;;;1755349;80;29044;-54
2022/03/30 11:45:12;;;;;;;0.20;0.20;;;;;;;;;;1771180;80;27343;-51
2022/03/30 11:46:06;;;;;;;0.30;0.30;;;;;;;;;;1795528;78;26371;-49
2022/03/30 11:48:37;;;;;;;0.20;0.20;;;;;;;;;;1779511;80;26691;-56
2022/03/30 11:51:05;;;;;;;0.15;0.15;;;;;;;;;;1771105;80;26259;-47
2022/03/30 11:53:35;;;;;;;1.27;0.30;;;;;;;;;;1800083;79;26293;-56
2022/03/30 11:56:06;;;;;;;0.65;0.30;;;;;;;;;;1770680;80;26887;-51
2022/03/30 11:58:34;;;;;;;0.20;0.20;;;;;;;;;;1800716;79;26300;-52
2022/03/30 12:01:06;;;;;;;0.20;0.20;;;;;;;;;;1772664;79;26854;-64
2022/03/30 12:03:34;;;;;;;0.20;0.20;;;;;;;;;;1771119;79;26273;-55
2022/03/30 12:06:03;;;;;;;1.37;0.20;;;;;;;;;;1790414;80;26358;-47
2022/03/30 12:08:32;;;;;;;2.62;0.30;;;;;;;;;;1787615;80;26293;-55
2022/03/30 12:11:00;;;;;;;0.23;0.20;;;;;;;;;;1784049;79;26332;-60
2022/03/30 12:13:28;;;;;;;0.30;0.30;;;;;;;;;;1790360;80;26314;-63
2022/03/30 12:16:03;;;;;;;0.30;0.30;;;;;;;;;;1789946;80;26275;-61
2022/03/30 12:18:31;;;;;;;1.47;0.30;;;;;;;;;;1771291;79;26304;-61
2022/03/30 12:21:02;;;;;;;0.40;0.40;;;;;;;;;;1778328;79;26386;-48
2022/03/30 12:23:30;;;;;;;0.37;0.20;;;;;;;;;;1788472;79;26246;-54
2022/03/30 12:25:57;;;;;;;0.20;0.20;;;;;;;;;;1776407;79;25567;-50
2022/03/30 12:28:34;;;;;;;0.20;0.20;;;;;;;;;;1769002;79;26673;-55
2022/03/30 12:31:01;;;;;;;0.78;0.20;;;;;;;;;;1762824;79;26354;-62
2022/03/30 12:33:29;;;;;;;0.20;0.20;;;;;;;;;;1784343;80;26282;-60
2022/03/30 12:35:56;;;;;;;0.25;0.20;;;;;;;;;;1762078;80;26816;-59
2022/03/30 12:38:24;;;;;;;0.20;0.20;;;;;;;;;;1765612;80;26282;-54
2022/03/30 12:40:53;;;;;;;0.25;0.25;;;;;;;;;;1794178;78;26269;-60
2022/03/30 12:43:28;;;;;;;1.65;0.30;;;;;;;;;;1765214;80;26231;-50
2022/03/30 12:45:59;;;;;;;1.27;0.20;;;;;;;;;;1763842;79;26254;-52
2022/03/30 12:48:28;;;;;;;0.10;0.10;;;;;;;;;;1763886;79;26238;-51
2022/03/30 12:51:02;;;;;;;0.28;0.28;;;;;;;;;;1752499;80;26404;-56
2022/03/30 12:53:30;;;;;;;0.10;0.10;;;;;;;;;;1776318;81;26334;-57
2022/03/30 12:55:59;;;;;;;0.20;0.20;;;;;;;;;;1765877;80;26286;-51
2022/03/30 12:58:27;;;;;;;1.17;0.20;;;;;;;;;;1806803;78;26301;-60
2022/03/30 13:00:55;;;;;;;0.00;0.00;;;;;;;;;;1808524;78;26428;-54
2022/03/30 13:03:30;;;;;;;0.23;0.23;;;;;;;;;;1765173;81;26360;-51
2022/03/30 13:06:12;;;;;;;0.17;0.17;;;;;;;;;;1772365;80;26827;-48
2022/03/30 13:08:35;;;;;;;0.10;0.10;;;;;;;;;;1797944;78;26309;-57
2022/03/30 13:11:04;;;;;;;0.72;0.20;;;;;;;;;;1794192;78;26333;-55
2022/03/30 13:13:32;;;;;;;0.10;0.10;;;;;;;;;;1794277;79;26890;-56
2022/03/30 13:16:11;;;;;;;0.30;0.30;;;;;;;;;;1777232;79;26369;-51
2022/03/30 13:18:42;;;;;;;0.10;0.10;;;;;;;;;;1761969;80;26338;-53
2022/03/30 13:21:11;;;;;;;0.10;0.10;;;;;;;;;;1768164;79;26370;-52
2022/03/30 13:23:39;;;;;;;1.37;0.20;;;;;;;;;;1836362;77;26256;-54
2022/03/30 13:26:08;;;;;;;0.78;0.13;;;;;;;;;;1823430;78;26687;-59
2022/03/30 13:28:37;;;;;;;0.17;0.17;;;;;;;;;;1806300;77;26684;-50
2022/03/30 13:31:05;;;;;;;0.20;0.10;;;;;;;;;;1829455;77;26352;-60
2022/03/30 13:33:32;;;;;;;6.67;0.42;;;;;;;;;;1824750;77;26271;-56
2022/03/30 13:36:00;;;;;;;0.20;0.20;;;;;;;;;;1822859;77;26318;-54
2022/03/30 13:38:27;;;;;;;3.10;0.20;;;;;;;;;;1829426;77;26246;-61
2022/03/30 13:40:55;;;;;;;0.10;0.10;;;;;;;;;;1823889;78;26286;-62
2022/03/30 13:43:22;;;;;;;0.37;0.20;;;;;;;;;;1822105;77;26219;-56
2022/03/30 13:45:49;;;;;;;0.10;0.10;;;;;;;;;;1832961;77;26291;-56
2022/03/30 13:48:18;;;;;;;0.55;0.20;;;;;;;;;;1822219;77;26285;-46
2022/03/30 13:50:47;;;;;;;0.13;0.13;;;;;;;;;;1823929;77;26263;-53
2022/03/30 13:53:15;;;;;;;1.32;0.23;;;;;;;;;;1823798;77;26884;-48
2022/03/30 13:55:42;;;;;;;0.28;0.28;;;;;;;;;;1823644;77;26282;-57
2022/03/30 13:58:09;;;;;;;0.10;0.10;;;;;;;;;;1828965;77;26276;-56
2022/03/30 14:00:37;;;;;;;0.25;0.25;;;;;;;;;;1835625;77;26730;-49
2022/03/30 14:03:05;;;;;;;0.30;0.30;;;;;;;;;;1833205;77;26754;-49
2022/03/30 14:05:32;;;;;;;0.20;0.20;;;;;;;;;;1823592;77;26789;-48
2022/03/30 14:08:01;;;;;;;0.30;0.20;;;;;;;;;;1826096;77;26279;-48
2022/03/30 14:10:28;;;;;;;0.20;0.20;;;;;;;;;;1828850;77;27029;-56
2022/03/30 14:12:56;;;;;;;0.72;0.20;;;;;;;;;;1812138;77;28202;-65
2022/03/30 14:15:23;;;;;;;0.30;0.30;;;;;;;;;;1830417;77;26281;-49
2022/03/30 14:17:51;;;;;;;0.20;0.20;;;;;;;;;;1835189;77;26379;-48
2022/03/30 14:20:19;;;;;;;0.10;0.10;;;;;;;;;;1823495;78;26295;-52
2022/03/30 14:22:47;;;;;;;0.68;0.17;;;;;;;;;;1821817;77;26374;-56
2022/03/30 14:25:16;;;;;;;0.40;0.30;;;;;;;;;;1798476;77;39087;-54
2022/03/30 14:27:43;;;;;;;1.35;0.20;;;;;;;;;;1826910;77;26763;-55
2022/03/30 14:30:12;;;;;;;0.42;0.30;;;;;;;;;;1818160;79;26279;-61
2022/03/30 14:32:40;;;;;;;0.23;0.23;;;;;;;;;;1815913;79;26239;-51
2022/03/30 14:35:08;;;;;;;0.20;0.20;;;;;;;;;;1815919;79;26298;-58
2022/03/30 14:37:35;;;;;;;0.30;0.30;;;;;;;;;;1815829;77;26698;-61
2022/03/30 14:40:03;;;;;;;0.10;0.10;;;;;;;;;;1817368;77;26274;-60
2022/03/30 14:42:31;;;;;;;1.45;0.20;;;;;;;;;;1814368;77;26258;-61
2022/03/30 14:44:58;;;;;;;0.20;0.20;;;;;;;;;;1816777;78;26305;-60
2022/03/30 14:47:25;;;;;;;1.55;0.30;;;;;;;;;;1817994;77;26281;-61
2022/03/30 14:49:52;;;;;;;0.10;0.10;;;;;;;;;;1807456;78;26361;-59
2022/03/30 14:52:20;;;;;;;1.10;0.20;;;;;;;;;;1817151;78;26216;-60
2022/03/30 14:54:47;;;;;;;0.15;0.15;;;;;;;;;;1804231;79;26360;-62
2022/03/30 14:57:15;;;;;;;0.10;0.10;;;;;;;;;;1817417;79;26299;-58
2022/03/30 14:59:42;;;;;;;0.30;0.30;;;;;;;;;;1826888;77;26262;-60